Pierce City, Missouri
Current Conditions -  °F | °C
As of 1:55 PM on Thursday 18 Dec 2014 (Local Time) from KHFJ Reporting Station
Overcast Overcast  
Wind Chill: 37°   Ceiling: 600
Heat Index: 37°   Visibility: 10mi
Dew Point: 36°   Wind: 0mph
Humidity: 93%   Direction: NA
Pressure: 30.13"   Gusts: NA
Location:  36.95°N, 94°W
Report Text: KHFJ 181955Z AUTO 00000KT 10SM OVC006 03/02 A3013 RMK AO2
Loading
Personal Weather Stations






























Interactive Weather Map New forecast layout! Learn more

10-Day Weather Forecast

Advertisements
Track Severe Weather on mobile